createdAt,value
2022-11-20T00:00:46.454Z,44.32
2022-11-20T00:01:53.043Z,45.19
2022-11-20T00:02:54.796Z,46.29
2022-11-20T00:03:58.942Z,45.65
2022-11-20T00:05:00.733Z,45.45
2022-11-20T00:06:07.385Z,44.75
2022-11-20T00:07:09.201Z,45.68
2022-11-20T00:08:11.482Z,45.78
2022-11-20T00:09:13.389Z,43.63
2022-11-20T00:10:15.262Z,45.79
2022-11-20T00:11:20.644Z,45.42
2022-11-20T00:12:22.357Z,45.04
2022-11-20T00:13:24.333Z,47.07
2022-11-20T00:14:26.093Z,45.18
2022-11-20T00:15:27.829Z,45.58
2022-11-20T00:16:33.053Z,47.47
2022-11-20T00:17:34.832Z,47.76
2022-11-20T00:18:37.141Z,47.06
2022-11-20T00:19:38.876Z,46.02
2022-11-20T00:20:40.649Z,45.46
2022-11-20T00:21:42.508Z,48.23
2022-11-20T00:22:44.290Z,49.31
2022-11-20T00:23:46.683Z,47.97
2022-11-20T00:24:48.471Z,47.86
2022-11-20T00:25:50.212Z,48.53
2022-11-20T00:26:51.966Z,47.90
2022-11-20T00:27:53.730Z,46.95
2022-11-20T00:29:02.287Z,47.71
2022-11-20T00:30:05.755Z,48.31
2022-11-20T00:31:13.811Z,47.50
2022-11-20T00:32:15.954Z,50.31
2022-11-20T00:33:17.707Z,50.00
2022-11-20T00:34:19.640Z,48.44
2022-11-20T00:35:21.613Z,49.35
2022-11-20T00:36:26.759Z,48.50
2022-11-20T00:37:28.571Z,50.15
2022-11-20T00:38:31.216Z,49.00
2022-11-20T00:39:33.140Z,49.52
2022-11-20T00:40:35.075Z,48.23
2022-11-20T00:41:36.875Z,47.88
2022-11-20T00:42:43.188Z,48.76
2022-11-20T00:43:45.137Z,47.37
2022-11-20T00:44:46.877Z,46.35
2022-11-20T00:45:48.695Z,47.02
2022-11-20T00:46:50.466Z,47.83
2022-11-20T00:47:52.244Z,49.93
2022-11-20T00:48:54.612Z,47.96
2022-11-20T00:49:56.345Z,45.93
2022-11-20T00:50:58.840Z,44.89
2022-11-20T00:52:00.647Z,43.89
2022-11-20T00:53:02.357Z,46.50
2022-11-20T00:54:04.380Z,48.28
2022-11-20T00:55:06.892Z,47.37
2022-11-20T00:56:13.558Z,47.05
2022-11-20T00:57:15.309Z,46.71
2022-11-20T00:58:17.037Z,48.72
2022-11-20T00:59:18.803Z,46.99
2022-11-20T01:00:20.679Z,45.93
2022-11-20T01:01:26.081Z,46.76
2022-11-20T01:02:27.996Z,45.39
2022-11-20T01:03:35.593Z,45.58
2022-11-20T01:04:37.754Z,46.18
2022-11-20T01:05:39.474Z,46.09
2022-11-20T01:06:41.579Z,44.87
2022-11-20T01:07:43.341Z,44.09
2022-11-20T01:08:46.348Z,43.87
2022-11-20T01:09:48.060Z,45.75
2022-11-20T01:10:49.775Z,45.02
2022-11-20T01:11:51.567Z,45.35
2022-11-20T01:13:13.270Z,47.58
2022-11-20T01:14:19.589Z,45.96
2022-11-20T01:15:21.329Z,44.56
2022-11-20T01:16:24.544Z,45.30
2022-11-20T01:17:26.305Z,46.09
2022-11-20T01:18:28.055Z,47.25
2022-11-20T01:19:29.755Z,45.74
2022-11-20T01:20:34.772Z,46.33
2022-11-20T01:21:39.553Z,46.35
2022-11-20T01:22:41.278Z,45.42
2022-11-20T01:23:45.019Z,46.30
2022-11-20T01:24:46.808Z,46.37
2022-11-20T01:25:48.626Z,47.01
2022-11-20T01:26:52.308Z,46.09
2022-11-20T01:27:54.279Z,46.58
2022-11-20T01:28:58.159Z,45.87
2022-11-20T01:30:01.272Z,45.06
2022-11-20T01:31:31.554Z,44.30
2022-11-20T01:32:33.306Z,45.38
2022-11-20T01:33:35.034Z,46.60
2022-11-20T01:34:36.799Z,43.85
2022-11-20T01:35:39.090Z,45.93
2022-11-20T01:36:43.526Z,45.54
2022-11-20T01:37:45.278Z,48.19
2022-11-20T01:38:47.280Z,47.05
2022-11-20T01:39:48.990Z,45.78
2022-11-20T01:40:57.326Z,48.33
2022-11-20T01:42:17.812Z,47.73
2022-11-20T01:43:24.170Z,49.18
2022-11-20T01:45:05.101Z,48.06
2022-11-20T01:46:16.438Z,46.75
2022-11-20T01:47:39.520Z,46.72
2022-11-20T01:48:53.134Z,47.76
2022-11-20T01:50:17.628Z,47.66
2022-11-20T01:51:35.028Z,47.85
2022-11-20T01:52:49.558Z,48.22
2022-11-20T01:53:55.319Z,48.33
2022-11-20T01:55:29.545Z,48.80
2022-11-20T01:56:37.932Z,47.75
2022-11-20T01:57:40.945Z,46.57
2022-11-20T01:58:51.402Z,48.15
2022-11-20T02:00:10.427Z,48.04
2022-11-20T02:01:18.792Z,49.83
2022-11-20T02:02:22.487Z,47.02
2022-11-20T02:03:24.914Z,48.25
2022-11-20T02:04:26.925Z,47.65
2022-11-20T02:05:46.908Z,48.39
2022-11-20T02:06:54.678Z,45.78
2022-11-20T02:08:00.029Z,44.84
2022-11-20T02:09:01.789Z,46.20
2022-11-20T02:10:04.515Z,47.63
2022-11-20T02:11:06.914Z,47.64
2022-11-20T02:12:29.009Z,46.84
2022-11-20T02:13:46.164Z,47.59
2022-11-20T02:14:47.927Z,47.14
2022-11-20T02:15:50.656Z,46.12
2022-11-20T02:16:53.137Z,48.06
2022-11-20T02:17:55.285Z,47.26
2022-11-20T02:19:01.308Z,48.55
2022-11-20T02:20:04.044Z,46.70
2022-11-20T02:21:25.433Z,47.61
2022-11-20T02:22:38.746Z,50.64
2022-11-20T02:24:15.364Z,47.04
2022-11-20T02:25:19.468Z,47.41
2022-11-20T02:26:24.122Z,48.46
2022-11-20T02:27:27.628Z,50.08
2022-11-20T02:28:29.605Z,48.52
2022-11-20T02:29:56.609Z,47.75
2022-11-20T02:30:58.424Z,46.45
2022-11-20T02:32:02.425Z,47.40
2022-11-20T02:33:04.146Z,48.74
2022-11-20T02:34:08.264Z,46.04
2022-11-20T02:35:18.818Z,48.87
2022-11-20T02:36:20.756Z,48.85
2022-11-20T02:37:23.944Z,45.63
2022-11-20T02:38:25.819Z,46.73
2022-11-20T02:39:29.608Z,45.86
2022-11-20T02:40:33.456Z,47.88
2022-11-20T02:41:38.600Z,44.98
2022-11-20T02:42:41.121Z,45.68
2022-11-20T02:43:42.872Z,45.64
2022-11-20T02:44:45.685Z,44.92
2022-11-20T02:45:47.376Z,45.31
2022-11-20T02:46:49.106Z,45.63
2022-11-20T02:47:51.976Z,48.24
2022-11-20T02:48:53.863Z,47.03
2022-11-20T02:49:55.594Z,44.87
2022-11-20T02:50:57.490Z,47.65
2022-11-20T02:51:59.587Z,47.10
2022-11-20T02:53:01.444Z,45.88
2022-11-20T02:54:03.949Z,45.53
2022-11-20T02:55:06.274Z,46.05
2022-11-20T02:56:08.393Z,46.94
2022-11-20T02:57:10.116Z,47.81
2022-11-20T02:58:11.987Z,46.92
2022-11-20T02:59:13.712Z,49.05
2022-11-20T03:00:15.680Z,49.13
2022-11-20T03:01:17.483Z,46.88
2022-11-20T03:02:19.241Z,47.84
2022-11-20T03:03:21.062Z,47.09
2022-11-20T03:04:23.228Z,46.77
2022-11-20T03:05:25.139Z,45.03
2022-11-20T03:06:27.069Z,46.08
2022-11-20T03:07:28.883Z,46.71
2022-11-20T03:08:30.891Z,46.67
2022-11-20T03:09:32.717Z,47.61
2022-11-20T03:10:34.467Z,50.79
2022-11-20T03:11:36.473Z,49.68
2022-11-20T03:12:38.257Z,45.14
2022-11-20T03:13:40.101Z,47.55
2022-11-20T03:14:50.189Z,46.25
2022-11-20T03:15:54.575Z,49.19
2022-11-20T03:16:57.096Z,49.15
2022-11-20T03:17:59.115Z,47.16
2022-11-20T03:19:04.068Z,48.29
2022-11-20T03:20:07.025Z,50.10
2022-11-20T03:21:11.085Z,49.18
2022-11-20T03:22:12.802Z,48.44
2022-11-20T03:23:14.516Z,47.84
2022-11-20T03:24:16.297Z,48.32
2022-11-20T03:25:18.262Z,47.32
2022-11-20T03:26:23.453Z,46.17
2022-11-20T03:27:25.394Z,49.31
2022-11-20T03:28:27.100Z,49.17
2022-11-20T03:29:28.814Z,48.24
2022-11-20T03:30:31.094Z,46.62
2022-11-20T03:31:41.295Z,47.17
2022-11-20T03:32:43.703Z,48.09
2022-11-20T03:33:45.569Z,46.47
2022-11-20T03:34:47.291Z,45.21
2022-11-20T03:35:49.060Z,48.46
2022-11-20T03:36:50.786Z,49.17
2022-11-20T03:37:52.522Z,47.21
2022-11-20T03:38:56.541Z,48.07
2022-11-20T03:39:58.282Z,47.67
2022-11-20T03:41:05.321Z,47.38
2022-11-20T03:42:27.022Z,49.86
2022-11-20T03:43:29.138Z,48.92
2022-11-20T03:44:30.879Z,50.54
2022-11-20T03:45:32.626Z,50.33
2022-11-20T03:46:34.716Z,51.68
2022-11-20T03:47:36.978Z,50.95
2022-11-20T03:48:38.713Z,51.60
2022-11-20T03:49:40.423Z,49.05
2022-11-20T03:50:42.139Z,48.07
2022-11-20T03:51:43.896Z,49.76
2022-11-20T03:52:45.642Z,49.25
2022-11-20T03:53:49.090Z,49.37
2022-11-20T03:54:50.896Z,50.81
2022-11-20T03:55:52.727Z,51.45
2022-11-20T03:56:54.453Z,49.54
2022-11-20T03:57:56.323Z,49.24
2022-11-20T03:58:58.657Z,48.60
2022-11-20T04:00:00.830Z,50.40
2022-11-20T04:01:11.229Z,50.49
2022-11-20T04:02:13.010Z,49.35
2022-11-20T04:03:15.168Z,48.09
2022-11-20T04:04:16.974Z,46.91
2022-11-20T04:05:18.664Z,50.26
2022-11-20T04:06:26.837Z,49.74
2022-11-20T04:07:28.614Z,49.62
2022-11-20T04:08:31.884Z,48.52
2022-11-20T04:09:33.639Z,47.88
2022-11-20T04:10:35.453Z,50.53
2022-11-20T04:11:41.343Z,47.23
2022-11-20T04:12:43.111Z,47.36
2022-11-20T04:13:49.601Z,49.21
2022-11-20T04:14:51.365Z,47.61
2022-11-20T04:15:58.774Z,47.79
2022-11-20T04:17:00.562Z,48.29
2022-11-20T04:18:02.274Z,49.48
2022-11-20T04:19:07.248Z,46.56
2022-11-20T04:20:09.398Z,46.40
2022-11-20T04:21:12.294Z,48.05
2022-11-20T04:22:14.376Z,47.25
2022-11-20T04:23:16.079Z,48.17
2022-11-20T04:24:17.945Z,48.60
2022-11-20T04:25:19.692Z,47.84
2022-11-20T04:26:24.140Z,48.98
2022-11-20T04:27:25.920Z,50.11
2022-11-20T04:28:27.650Z,48.78
2022-11-20T04:29:29.363Z,48.74
2022-11-20T04:30:32.108Z,47.85
2022-11-20T04:31:35.613Z,48.97
2022-11-20T04:32:37.340Z,48.01
2022-11-20T04:33:40.643Z,49.28
2022-11-20T04:34:42.488Z,48.66
2022-11-20T04:35:48.944Z,47.25
2022-11-20T04:36:50.707Z,48.35
2022-11-20T04:37:53.104Z,46.99
2022-11-20T04:38:57.730Z,44.95
2022-11-20T04:39:59.499Z,47.76
2022-11-20T04:41:03.955Z,46.78
2022-11-20T04:42:24.454Z,46.98
2022-11-20T04:43:26.270Z,48.71
2022-11-20T04:44:27.978Z,48.59
2022-11-20T04:45:29.750Z,48.59
2022-11-20T04:46:42.984Z,49.66
2022-11-20T04:47:44.715Z,51.64
2022-11-20T04:48:46.835Z,50.73
2022-11-20T04:49:48.834Z,50.86
2022-11-20T04:50:51.274Z,49.70
2022-11-20T04:51:56.109Z,49.69
2022-11-20T04:52:57.818Z,49.97
2022-11-20T04:53:59.595Z,51.05
2022-11-20T04:55:01.347Z,53.09
2022-11-20T04:56:05.780Z,53.91
2022-11-20T04:57:12.950Z,56.64
2022-11-20T04:58:17.006Z,54.02
2022-11-20T04:59:18.879Z,53.93
2022-11-20T05:00:21.073Z,54.18
2022-11-20T05:01:25.359Z,52.86
2022-11-20T05:02:27.236Z,54.36
2022-11-20T05:03:29.115Z,50.94
2022-11-20T05:04:30.858Z,51.67
2022-11-20T05:05:35.035Z,51.56
2022-11-20T05:06:36.739Z,51.37
2022-11-20T05:07:38.525Z,53.80
2022-11-20T05:08:41.065Z,52.46
2022-11-20T05:09:42.797Z,52.15
2022-11-20T05:10:44.789Z,51.97
2022-11-20T05:11:50.407Z,49.20
2022-11-20T05:12:54.438Z,52.54
2022-11-20T05:13:56.410Z,53.01
2022-11-20T05:14:58.202Z,52.70
2022-11-20T05:16:05.914Z,53.04
2022-11-20T05:17:11.269Z,51.08
2022-11-20T05:18:13.060Z,53.83
2022-11-20T05:19:14.820Z,60.41
2022-11-20T05:20:17.037Z,62.80
2022-11-20T05:21:19.303Z,62.24
2022-11-20T05:22:21.101Z,55.43
2022-11-20T05:23:23.094Z,53.59
2022-11-20T05:24:24.852Z,54.62
2022-11-20T05:25:26.760Z,54.70
2022-11-20T05:26:28.800Z,57.38
2022-11-20T05:27:30.534Z,52.63
2022-11-20T05:28:33.450Z,49.76
2022-11-20T05:29:35.227Z,52.12
2022-11-20T05:30:36.927Z,51.80
2022-11-20T05:31:42.385Z,53.40
2022-11-20T05:32:44.116Z,57.01
2022-11-20T05:33:47.071Z,54.82
2022-11-20T05:34:48.787Z,54.61
2022-11-20T05:35:50.609Z,57.64
2022-11-20T05:36:52.418Z,59.64
2022-11-20T05:37:54.143Z,61.86
2022-11-20T05:39:01.204Z,65.10
2022-11-20T05:40:04.188Z,74.89
2022-11-20T05:41:08.800Z,69.64
2022-11-20T05:42:29.659Z,63.76
2022-11-20T05:43:34.821Z,63.95
2022-11-20T05:44:36.651Z,64.27
2022-11-20T05:45:38.448Z,72.13
2022-11-20T05:46:40.225Z,75.79
2022-11-20T05:47:42.112Z,91.99
2022-11-20T05:48:45.238Z,137.36
2022-11-20T05:49:47.086Z,125.68
2022-11-20T05:50:49.310Z,100.27
2022-11-20T05:51:51.026Z,93.55
2022-11-20T05:52:53.035Z,107.06
2022-11-20T05:53:58.434Z,90.64
2022-11-20T05:55:00.245Z,112.26
2022-11-20T05:56:06.064Z,100.23
2022-11-20T05:57:07.801Z,101.88
2022-11-20T05:58:09.816Z,101.31
2022-11-20T05:59:11.538Z,89.07
2022-11-20T06:00:14.143Z,80.19
2022-11-20T06:01:22.431Z,70.08
2022-11-20T06:02:24.266Z,88.53
2022-11-20T06:03:26.045Z,79.77
2022-11-20T06:04:27.960Z,64.65
2022-11-20T06:05:29.749Z,57.96
2022-11-20T06:06:31.550Z,58.42
2022-11-20T06:07:33.365Z,56.85
2022-11-20T06:08:35.512Z,56.19
2022-11-20T06:09:37.246Z,57.06
2022-11-20T06:10:39.061Z,71.84
2022-11-20T06:11:40.899Z,78.30
2022-11-20T06:12:42.658Z,63.78
2022-11-20T06:13:45.064Z,60.00
2022-11-20T06:14:46.805Z,63.42
2022-11-20T06:15:53.024Z,79.64
2022-11-20T06:16:54.786Z,85.13
2022-11-20T06:17:56.686Z,68.91
2022-11-20T06:18:58.883Z,73.60
2022-11-20T06:20:00.745Z,74.06
2022-11-20T06:21:06.745Z,66.53
2022-11-20T06:22:08.527Z,62.23
2022-11-20T06:23:10.327Z,62.55
2022-11-20T06:24:12.400Z,63.70
2022-11-20T06:25:14.940Z,62.30
2022-11-20T06:26:22.310Z,65.04
2022-11-20T06:27:24.122Z,72.70
2022-11-20T06:28:26.078Z,68.53
2022-11-20T06:29:32.702Z,68.04
2022-11-20T06:30:36.769Z,64.52
2022-11-20T06:31:38.863Z,71.45
2022-11-20T06:32:40.682Z,61.28
2022-11-20T06:33:43.802Z,63.44
2022-11-20T06:34:45.505Z,63.98
2022-11-20T06:35:47.248Z,61.22
2022-11-20T06:36:48.977Z,60.69
2022-11-20T06:37:50.741Z,62.98
2022-11-20T06:38:52.734Z,65.77
2022-11-20T06:39:54.494Z,62.58
2022-11-20T06:40:57.195Z,62.17
2022-11-20T06:41:59.444Z,61.56
2022-11-20T06:43:01.265Z,60.40
2022-11-20T06:44:05.474Z,55.13
2022-11-20T06:45:07.830Z,54.92
2022-11-20T06:46:11.778Z,54.24
2022-11-20T06:47:13.604Z,56.96
2022-11-20T06:48:15.370Z,58.50
2022-11-20T06:49:17.292Z,57.13
2022-11-20T06:50:19.072Z,54.55
2022-11-20T06:51:20.915Z,56.84
2022-11-20T06:52:22.681Z,54.42
2022-11-20T06:53:25.565Z,55.89
2022-11-20T06:54:27.295Z,54.26
2022-11-20T06:55:29.221Z,52.71
2022-11-20T06:56:30.943Z,54.71
2022-11-20T06:57:32.833Z,53.49
2022-11-20T06:58:36.317Z,54.60
2022-11-20T06:59:38.059Z,56.61
2022-11-20T07:00:40.135Z,55.37
2022-11-20T07:01:42.274Z,56.06
2022-11-20T07:02:43.999Z,55.88
2022-11-20T07:03:48.928Z,55.82
2022-11-20T07:04:53.130Z,57.64
2022-11-20T07:05:58.971Z,57.16
2022-11-20T07:07:00.755Z,58.43
2022-11-20T07:08:04.291Z,57.59
2022-11-20T07:09:11.380Z,54.55
2022-11-20T07:10:14.579Z,55.10
2022-11-20T07:11:16.318Z,57.42
2022-11-20T07:12:18.146Z,57.46
2022-11-20T07:13:19.909Z,55.17
2022-11-20T07:14:21.663Z,56.94
2022-11-20T07:15:26.100Z,55.11
2022-11-20T07:16:28.187Z,54.81
2022-11-20T07:17:29.965Z,55.34
2022-11-20T07:18:31.815Z,56.24
2022-11-20T07:19:33.571Z,55.44
2022-11-20T07:20:35.347Z,56.72
2022-11-20T07:21:37.130Z,56.67
2022-11-20T07:22:38.893Z,57.37
2022-11-20T07:23:40.649Z,53.42
2022-11-20T07:24:45.973Z,55.97
2022-11-20T07:25:48.180Z,56.34
2022-11-20T07:26:50.205Z,57.03
2022-11-20T07:27:52.299Z,55.22
2022-11-20T07:28:53.990Z,56.29
2022-11-20T07:29:55.790Z,55.31
2022-11-20T07:30:57.601Z,57.76
2022-11-20T07:31:59.335Z,54.34
2022-11-20T07:33:01.421Z,53.65
2022-11-20T07:34:03.372Z,53.75
2022-11-20T07:35:05.494Z,52.75
2022-11-20T07:36:07.588Z,53.47
2022-11-20T07:37:10.600Z,55.79
2022-11-20T07:38:12.568Z,56.79
2022-11-20T07:39:14.287Z,55.03
2022-11-20T07:40:17.224Z,54.24
2022-11-20T07:41:19.196Z,53.57
2022-11-20T07:42:20.945Z,53.28
2022-11-20T07:43:26.252Z,56.24
2022-11-20T07:44:28.134Z,55.58
2022-11-20T07:45:29.841Z,54.41
2022-11-20T07:46:31.810Z,55.05
2022-11-20T07:47:37.506Z,53.93
2022-11-20T07:48:39.246Z,52.38
2022-11-20T07:49:40.952Z,52.82
2022-11-20T07:50:42.699Z,52.72
2022-11-20T07:51:44.549Z,53.13
2022-11-20T07:52:46.620Z,55.35
2022-11-20T07:53:48.357Z,54.18
2022-11-20T07:54:50.090Z,61.94
2022-11-20T07:55:53.476Z,54.94
2022-11-20T07:56:55.927Z,53.94
2022-11-20T07:57:59.479Z,57.32
2022-11-20T07:59:01.303Z,59.30
2022-11-20T08:00:05.570Z,56.53
2022-11-20T08:01:14.028Z,57.47
2022-11-20T08:02:15.816Z,55.69
2022-11-20T08:03:24.069Z,55.11
2022-11-20T08:04:26.526Z,52.15
2022-11-20T08:05:28.256Z,55.22
2022-11-20T08:06:29.990Z,64.79
2022-11-20T08:07:36.937Z,90.34
2022-11-20T08:08:43.071Z,114.47
2022-11-20T08:09:45.031Z,125.03
2022-11-20T08:10:46.790Z,114.05
2022-11-20T08:12:07.115Z,93.22
2022-11-20T08:13:28.517Z,70.04
2022-11-20T08:14:30.362Z,92.78
2022-11-20T08:15:32.879Z,65.79
2022-11-20T08:16:34.653Z,54.56
2022-11-20T08:17:36.463Z,76.96
2022-11-20T08:18:38.211Z,159.14
2022-11-20T08:19:40.007Z,110.34
2022-11-20T08:20:41.779Z,57.95
2022-11-20T08:21:44.425Z,50.37
2022-11-20T08:22:46.425Z,48.51
2022-11-20T08:23:48.168Z,49.26
2022-11-20T08:24:50.125Z,47.77
2022-11-20T08:25:52.422Z,68.70
2022-11-20T08:26:55.111Z,69.43
2022-11-20T08:28:11.568Z,66.05
2022-11-20T08:29:20.642Z,62.09
2022-11-20T08:30:22.710Z,61.59
2022-11-20T08:31:26.740Z,64.53
2022-11-20T08:32:28.479Z,65.07
2022-11-20T08:33:33.991Z,57.54
2022-11-20T08:34:35.915Z,50.10
2022-11-20T08:35:38.961Z,50.58
2022-11-20T08:36:40.702Z,52.65
2022-11-20T08:37:42.557Z,54.88
2022-11-20T08:38:48.812Z,51.54
2022-11-20T08:39:50.618Z,51.73
2022-11-20T08:41:11.004Z,47.74
2022-11-20T08:42:12.716Z,45.21
2022-11-20T08:43:14.410Z,45.48
2022-11-20T08:44:16.155Z,49.01
2022-11-20T08:45:19.765Z,49.71
2022-11-20T08:46:21.893Z,50.01
2022-11-20T08:47:23.659Z,48.38
2022-11-20T08:48:25.390Z,50.53
2022-11-20T08:49:27.143Z,48.72
2022-11-20T08:50:29.096Z,49.87
2022-11-20T08:51:31.297Z,49.57
2022-11-20T08:52:36.986Z,50.37
2022-11-20T08:53:42.769Z,51.54
2022-11-20T08:54:44.502Z,66.94
2022-11-20T08:55:46.402Z,96.07
2022-11-20T08:56:48.321Z,131.87
2022-11-20T08:57:51.238Z,100.18
2022-11-20T09:00:16.154Z,126.34
2022-11-20T09:01:18.228Z,98.71
2022-11-20T09:02:20.019Z,143.64
2022-11-20T09:03:22.155Z,149.43
2022-11-20T09:04:23.901Z,127.71
2022-11-20T09:05:25.964Z,87.89
2022-11-20T09:06:28.143Z,125.49
2022-11-20T09:07:31.402Z,86.06
2022-11-20T09:08:33.980Z,61.40
2022-11-20T09:09:35.777Z,59.41
2022-11-20T09:10:40.549Z,49.71
2022-11-20T09:11:42.334Z,45.49
2022-11-20T09:12:44.467Z,50.82
2022-11-20T09:13:46.386Z,53.32
2022-11-20T09:14:53.736Z,52.24
2022-11-20T09:15:58.695Z,48.21
2022-11-20T09:17:01.035Z,44.44
2022-11-20T09:18:05.722Z,46.19
2022-11-20T09:19:40.786Z,46.77
2022-11-20T09:20:31.564Z,43.69
2022-11-20T09:21:33.296Z,41.93
2022-11-20T09:22:35.046Z,43.70
2022-11-20T09:23:38.208Z,44.61
2022-11-20T09:24:39.936Z,41.63
2022-11-20T09:25:42.315Z,39.55
2022-11-20T09:26:44.145Z,38.43
2022-11-20T09:27:47.124Z,40.10
2022-11-20T09:28:51.868Z,45.85
2022-11-20T09:29:55.978Z,47.87
2022-11-20T09:30:57.760Z,45.52
2022-11-20T09:31:59.485Z,42.58
2022-11-20T09:33:01.339Z,43.15
2022-11-20T09:34:03.299Z,42.27
2022-11-20T09:35:05.567Z,39.76
2022-11-20T09:36:07.561Z,41.00
2022-11-20T09:37:09.329Z,42.38
2022-11-20T09:38:11.821Z,41.79
2022-11-20T09:39:13.525Z,43.17
2022-11-20T09:40:22.644Z,43.40
2022-11-20T09:41:47.310Z,42.50
2022-11-20T09:42:59.686Z,39.90
2022-11-20T09:44:34.722Z,42.75
2022-11-20T09:45:51.479Z,41.04
2022-11-20T09:47:02.240Z,43.39
2022-11-20T09:48:48.337Z,44.72
2022-11-20T09:50:20.995Z,47.01
2022-11-20T09:51:27.151Z,45.39
2022-11-20T09:53:08.017Z,48.50
2022-11-20T09:54:23.264Z,43.45
2022-11-20T09:55:25.652Z,37.49
2022-11-20T09:56:29.175Z,39.16
2022-11-20T09:57:38.870Z,42.16
2022-11-20T09:58:48.561Z,39.28
2022-11-20T10:00:00.434Z,37.35
2022-11-20T10:01:17.968Z,36.52
2022-11-20T10:02:41.114Z,35.54
2022-11-20T10:03:52.041Z,37.12
2022-11-20T10:05:12.109Z,37.75
2022-11-20T10:06:19.201Z,34.89
2022-11-20T10:07:32.633Z,37.07
2022-11-20T10:08:52.863Z,37.52
2022-11-20T10:09:57.526Z,33.71
2022-11-20T10:11:39.089Z,31.24
2022-11-20T10:13:13.416Z,30.94
2022-11-20T10:14:36.729Z,31.03
2022-11-20T10:15:50.399Z,32.22
2022-11-20T10:17:01.408Z,32.42
2022-11-20T10:18:31.738Z,31.71
2022-11-20T10:19:33.371Z,31.77
2022-11-20T10:21:02.302Z,32.64
2022-11-20T10:22:25.113Z,33.84
2022-11-20T10:23:33.093Z,28.13
2022-11-20T10:24:46.955Z,29.32
2022-11-20T10:26:03.811Z,31.06
2022-11-20T10:27:36.625Z,32.57
2022-11-20T10:29:05.993Z,31.80
2022-11-20T10:30:14.493Z,30.48
2022-11-20T10:31:48.129Z,30.54
2022-11-20T10:32:56.437Z,31.11
2022-11-20T10:34:15.958Z,31.86
2022-11-20T10:35:27.098Z,30.52
2022-11-20T10:36:39.016Z,31.09
2022-11-20T10:37:48.579Z,30.13
2022-11-20T10:39:00.396Z,30.27
2022-11-20T10:40:42.866Z,29.32
2022-11-20T10:41:52.154Z,31.53
2022-11-20T10:42:59.933Z,30.54
2022-11-20T10:44:49.378Z,33.01
2022-11-20T10:46:11.638Z,34.38
2022-11-20T10:47:17.203Z,33.68
2022-11-20T10:48:26.153Z,33.89
2022-11-20T10:49:28.938Z,36.41
2022-11-20T10:50:31.923Z,40.57
2022-11-20T10:51:59.338Z,38.89
2022-11-20T10:53:19.146Z,39.89
2022-11-20T10:54:55.374Z,58.28
2022-11-20T10:56:30.714Z,43.86
2022-11-20T10:58:02.962Z,35.90
2022-11-20T10:59:32.889Z,33.76
2022-11-20T11:00:35.118Z,33.26
2022-11-20T11:01:43.355Z,33.38
2022-11-20T11:02:56.019Z,36.22
2022-11-20T11:03:59.531Z,40.88
2022-11-20T11:05:14.690Z,41.75
2022-11-20T11:06:40.979Z,42.28
2022-11-20T11:07:45.159Z,44.23
2022-11-20T11:08:51.470Z,47.31
2022-11-20T11:09:55.743Z,45.85
2022-11-20T11:11:02.581Z,47.92
2022-11-20T11:12:09.862Z,55.73
2022-11-20T11:13:26.815Z,44.85
2022-11-20T11:14:28.646Z,45.06
2022-11-20T11:15:39.862Z,42.81
2022-11-20T11:16:53.853Z,43.59
2022-11-20T11:17:56.739Z,44.63
2022-11-20T11:19:12.599Z,46.46
2022-11-20T11:20:23.392Z,46.71
2022-11-20T11:21:27.220Z,46.32
2022-11-20T11:22:35.038Z,49.58
2022-11-20T11:23:43.029Z,47.29
2022-11-20T11:24:54.033Z,45.23
2022-11-20T11:26:01.177Z,46.11
2022-11-20T11:27:16.434Z,44.26
2022-11-20T11:28:19.037Z,42.72
2022-11-20T11:29:21.241Z,42.59
2022-11-20T11:30:26.006Z,43.18
2022-11-20T11:31:30.786Z,42.71
2022-11-20T11:32:32.592Z,42.71
2022-11-20T11:33:36.956Z,43.73
2022-11-20T11:34:38.856Z,43.10
2022-11-20T11:35:59.888Z,42.81
2022-11-20T11:37:06.321Z,41.07
2022-11-20T11:38:17.024Z,40.31
2022-11-20T11:39:22.812Z,39.95
2022-11-20T11:40:25.447Z,40.33
2022-11-20T11:41:35.821Z,41.18
2022-11-20T11:42:44.421Z,37.64
2022-11-20T11:44:15.609Z,35.36
2022-11-20T11:45:18.457Z,29.98
2022-11-20T11:46:33.496Z,29.66
2022-11-20T11:47:44.269Z,32.26
2022-11-20T11:49:16.260Z,32.13
2022-11-20T11:50:21.089Z,30.88
2022-11-20T11:51:23.345Z,31.23
2022-11-20T11:52:26.393Z,31.34
2022-11-20T11:53:30.314Z,31.70
2022-11-20T11:54:46.275Z,33.26
2022-11-20T11:55:56.711Z,31.92
2022-11-20T11:57:06.483Z,31.84
2022-11-20T11:58:18.118Z,29.93
2022-11-20T11:59:45.876Z,30.63
2022-11-20T12:01:23.116Z,32.18
2022-11-20T12:02:46.630Z,29.69
2022-11-20T12:04:41.361Z,29.04
2022-11-20T12:05:51.948Z,30.05
2022-11-20T12:07:24.227Z,30.47
2022-11-20T12:08:47.870Z,30.79
2022-11-20T12:09:55.795Z,27.81
2022-11-20T12:11:03.355Z,25.04
2022-11-20T12:12:31.162Z,29.62
2022-11-20T12:13:46.395Z,34.20
2022-11-20T12:14:51.962Z,32.38
2022-11-20T12:15:54.380Z,36.25
2022-11-20T12:16:58.572Z,33.50
2022-11-20T12:18:01.131Z,31.42
2022-11-20T12:19:03.056Z,34.42
2022-11-20T12:20:13.592Z,32.29
2022-11-20T12:21:24.532Z,31.96
2022-11-20T12:22:59.958Z,33.80
2022-11-20T12:24:25.636Z,32.38
2022-11-20T12:25:37.746Z,33.08
2022-11-20T12:27:00.937Z,34.62
2022-11-20T12:28:05.552Z,38.07
2022-11-20T12:29:30.497Z,37.85
2022-11-20T12:30:38.236Z,35.63
2022-11-20T12:31:55.246Z,35.73
2022-11-20T12:33:05.997Z,33.20
2022-11-20T12:34:32.116Z,63.66
2022-11-20T12:36:03.261Z,140.81
2022-11-20T12:37:14.009Z,85.10
2022-11-20T12:38:39.965Z,98.39
2022-11-20T12:39:51.547Z,286.28
2022-11-20T12:41:48.844Z,99.88
2022-11-20T12:43:31.086Z,133.00
2022-11-20T12:45:12.424Z,215.94
2022-11-20T12:46:32.888Z,86.25
2022-11-20T12:47:37.833Z,50.50
2022-11-20T12:48:48.128Z,42.95
2022-11-20T12:50:17.416Z,43.39
2022-11-20T12:52:03.759Z,48.67
2022-11-20T12:53:26.951Z,55.22
2022-11-20T12:55:02.840Z,90.75
2022-11-20T12:56:26.135Z,63.63
2022-11-20T12:57:55.677Z,69.26
2022-11-20T12:59:00.394Z,86.51
2022-11-20T13:00:21.504Z,69.97
2022-11-20T13:01:40.859Z,58.63
2022-11-20T13:02:58.084Z,51.56
2022-11-20T13:04:27.616Z,103.95
2022-11-20T13:06:13.324Z,122.88
2022-11-20T13:07:18.336Z,61.35
2022-11-20T13:08:34.051Z,67.14
2022-11-20T13:09:49.096Z,59.53
2022-11-20T13:10:57.166Z,48.39
2022-11-20T13:12:09.820Z,43.21
2022-11-20T13:13:32.071Z,87.08
2022-11-20T13:14:43.964Z,101.65
2022-11-20T13:16:02.608Z,76.50
2022-11-20T13:17:32.787Z,131.72
2022-11-20T13:18:42.630Z,79.82
2022-11-20T13:19:52.959Z,71.83
2022-11-20T13:20:55.115Z,79.80
2022-11-20T13:21:56.933Z,73.04
2022-11-20T13:22:59.748Z,61.93
2022-11-20T13:24:20.435Z,47.39
2022-11-20T13:25:31.515Z,54.04
2022-11-20T13:26:34.151Z,50.14
2022-11-20T13:27:35.969Z,48.15
2022-11-20T13:28:37.764Z,45.05
2022-11-20T13:29:45.801Z,48.39
2022-11-20T13:30:53.192Z,49.92
2022-11-20T13:32:15.238Z,54.71
2022-11-20T13:33:24.986Z,43.97
2022-11-20T13:34:28.502Z,54.59
2022-11-20T13:35:39.077Z,54.04
2022-11-20T13:36:52.589Z,48.52
2022-11-20T13:38:03.617Z,53.55
2022-11-20T13:39:05.578Z,66.26
2022-11-20T13:40:11.269Z,56.53
2022-11-20T13:41:29.767Z,75.90
2022-11-20T13:42:31.748Z,68.69
2022-11-20T13:43:41.968Z,63.07
2022-11-20T13:44:51.528Z,57.99
2022-11-20T13:46:11.602Z,51.34
2022-11-20T13:47:28.591Z,80.59
2022-11-20T13:48:35.111Z,75.07
2022-11-20T13:49:45.261Z,76.82
2022-11-20T13:51:01.902Z,92.03
2022-11-20T13:52:40.276Z,85.62
2022-11-20T13:54:07.265Z,54.02
2022-11-20T13:55:17.822Z,61.55
2022-11-20T13:56:54.602Z,84.52
2022-11-20T13:58:29.479Z,54.09
2022-11-20T13:59:41.249Z,44.79
2022-11-20T14:00:59.457Z,42.87
2022-11-20T14:02:02.339Z,45.64
2022-11-20T14:03:06.984Z,50.50
2022-11-20T14:04:10.438Z,49.63
2022-11-20T14:05:22.455Z,47.17
2022-11-20T14:06:34.092Z,54.14
2022-11-20T14:07:42.491Z,54.22
2022-11-20T14:08:48.585Z,48.63
2022-11-20T14:09:56.089Z,45.29
2022-11-20T14:11:18.010Z,46.19
2022-11-20T14:12:23.200Z,48.27
2022-11-20T14:13:24.946Z,51.08
2022-11-20T14:14:29.795Z,45.94
2022-11-20T14:15:34.662Z,82.92
2022-11-20T14:16:37.855Z,71.41
2022-11-20T14:17:39.641Z,59.38
2022-11-20T14:18:42.016Z,59.58
2022-11-20T14:19:48.613Z,51.50
2022-11-20T14:20:50.401Z,47.69
2022-11-20T14:22:11.095Z,47.39
2022-11-20T14:23:12.894Z,45.24
2022-11-20T14:24:22.499Z,45.63